METAR AND TAF INFORMATION

METAR FOR YPXM
ADDS - METARS form results

(0824 UTC 24 July 2021)
Data provider http://aviationweather.gov/metar/data/
 
METAR text: YPXM 240800Z AUTO 09011KT 9999 // SCT018 27/20 Q1013
Conditions at: YPXM (CHRISTMAS ISL (P, AU) observed 0800 UTC 24 July 2021
Temperature: 27.0°C (81°F)
Dewpoint: 20.0°C (68°F) [RH = 66%]
Pressure (altimeter): 29.91 inches Hg (1013.0 mb)
Winds: from the E (90 degrees) at 13 MPH (11 knots; 5.7 m/s)
Visibility: 6 or more miles (10+ km)
Ceiling: at least 12,000 feet AGL
Clouds: scattered clouds at 1800 feet AGL
Weather: no significant weather observed at this time

METAR text: YPXM 240730Z AUTO 08013KT 9999 // SCT020 27/21 Q1013 RF00.0/000.0
Conditions at: YPXM (CHRISTMAS ISL (P, AU) observed 0730 UTC 24 July 2021
Temperature: 27.0°C (81°F)
Dewpoint: 21.0°C (70°F) [RH = 70%]
Pressure (altimeter): 29.91 inches Hg (1013.0 mb)
Winds: from the E (80 degrees) at 15 MPH (13 knots; 6.7 m/s)
Visibility: 6 or more miles (10+ km)
Ceiling: at least 12,000 feet AGL
Clouds: scattered clouds at 2000 feet AGL
Weather: no significant weather observed at this time

Forecast for: YPXM (CHRISTMAS ISL (P, AU)
Text: TAF YPXM 240503Z 2406/2506 10014KT 9999 BKN018
Forecast period: 0600 UTC 24 July 2021 to 0600 UTC 25 July 2021
Forecast type: FROM: standard forecast or significant change
Winds: from the E (100 degrees) at 16 MPH (14 knots; 7.2 m/s)
Visibility: 6 or more miles (10+ km)
Ceiling: 1800 feet AGL
Clouds: broken clouds at 1800 feet AGL
Weather: no significant weather forecast for this period
Text: TEMPO 2418/2500 9999 BKN013
Forecast period: 1800 UTC 24 July 2021 to 0000 UTC 25 July 2021
Forecast type: TEMPORARY: The following changes expected for less than half the time period
Visibility: 6 or more miles (10+ km)
Ceiling: 1300 feet AGL
Clouds: broken clouds at 1300 feet AGL
Weather: no significant weather forecast for this period

 

AIRPORT MAP

 

RUNWAY INFORMATION

Runway 18 Runway length 6900 ft Runway width 148 ft
Runway elevation 916 ft Runway displaced threshold 0 ft Runway heading 175
Runway 36 Runway length 6900 ft Runway width 148 ft
Runway elevation 810 ft Runway displaced threshold 0 ft Runway heading 355

 

AIRPORT FREQUENCIES

Type CTAF Name CTAF Frequency 122.8 MHZ
Type FSS Name RDO Frequency 347 MHZ

 

AIRPORT NEAR NAVIGATION AIDS

Type VOR-DME Name Christmas Island Frequency 112400 KHZ